createdAt,value
2019-02-12T00:01:44.354Z,84.01
2019-02-12T00:04:15.231Z,83.99
2019-02-12T00:06:46.039Z,83.90
2019-02-12T00:09:16.806Z,83.90
2019-02-12T00:11:47.760Z,84.05
2019-02-12T00:14:18.498Z,84.18
2019-02-12T00:16:49.210Z,84.12
2019-02-12T00:19:20.038Z,84.14
2019-02-12T00:21:50.851Z,83.88
2019-02-12T00:24:21.699Z,83.95
2019-02-12T00:26:52.574Z,83.93
2019-02-12T00:29:23.484Z,83.94
2019-02-12T00:31:54.275Z,84.24
2019-02-12T00:34:25.388Z,83.81
2019-02-12T00:36:56.306Z,83.83
2019-02-12T00:39:27.089Z,83.76
2019-02-12T00:41:58.035Z,84.16
2019-02-12T00:44:31.795Z,84.19
2019-02-12T00:47:02.571Z,83.76
2019-02-12T00:49:33.340Z,83.63
2019-02-12T00:52:04.058Z,83.10
2019-02-12T00:54:34.844Z,83.24
2019-02-12T00:57:05.629Z,83.44
2019-02-12T00:59:36.363Z,83.35
2019-02-12T01:02:07.154Z,83.29
2019-02-12T01:04:38.094Z,83.14
2019-02-12T01:07:09.035Z,82.64
2019-02-12T01:09:39.879Z,82.80
2019-02-12T01:12:10.701Z,82.67
2019-02-12T01:14:41.460Z,82.10
2019-02-12T01:17:12.202Z,81.84
2019-02-12T01:19:43.460Z,81.63
2019-02-12T01:22:14.260Z,81.47
2019-02-12T01:24:45.074Z,81.21
2019-02-12T01:27:18.431Z,81.33
2019-02-12T01:29:49.182Z,81.24
2019-02-12T01:32:20.312Z,80.41
2019-02-12T01:34:51.207Z,80.48
2019-02-12T01:37:22.003Z,79.75
2019-02-12T01:39:52.889Z,79.72
2019-02-12T01:42:23.678Z,79.40
2019-02-12T01:44:54.449Z,78.82
2019-02-12T01:47:25.191Z,78.90
2019-02-12T01:49:56.169Z,78.39
2019-02-12T01:52:26.966Z,78.39
2019-02-12T01:54:57.688Z,78.22
2019-02-12T01:57:28.532Z,78.26
2019-02-12T01:59:59.344Z,77.59
2019-02-12T02:02:30.107Z,77.42
2019-02-12T02:05:00.965Z,77.58
2019-02-12T02:07:31.806Z,77.30
2019-02-12T02:10:03.360Z,77.59
2019-02-12T02:12:34.262Z,77.14
2019-02-12T02:15:06.023Z,77.13
2019-02-12T02:17:36.802Z,76.95
2019-02-12T02:20:08.429Z,76.78
2019-02-12T02:22:39.252Z,76.72
2019-02-12T02:31:01.677Z,76.42
2019-02-12T02:33:32.503Z,75.96
2019-02-12T02:36:03.522Z,76.42
2019-02-12T02:38:34.293Z,76.29
2019-02-12T02:41:05.041Z,76.78
2019-02-12T02:43:35.789Z,77.28
2019-02-12T02:46:06.511Z,77.65
2019-02-12T02:48:37.323Z,78.09
2019-02-12T02:51:08.067Z,78.48
2019-02-12T02:53:38.889Z,78.73
2019-02-12T02:56:09.679Z,78.96
2019-02-12T02:58:40.505Z,79.46
2019-02-12T03:01:11.268Z,79.48
2019-02-12T03:03:47.662Z,79.47
2019-02-12T03:06:18.449Z,79.59
2019-02-12T03:08:49.228Z,79.64
2019-02-12T03:11:20.276Z,79.85
2019-02-12T03:13:52.713Z,79.67
2019-02-12T03:16:23.514Z,79.65
2019-02-12T03:18:54.321Z,79.77
2019-02-12T03:21:24.995Z,79.81
2019-02-12T03:23:55.795Z,79.19
2019-02-12T03:26:26.699Z,79.20
2019-02-12T03:28:57.545Z,79.21
2019-02-12T03:31:28.285Z,79.37
2019-02-12T03:33:59.172Z,79.32
2019-02-12T03:36:31.198Z,78.52
2019-02-12T03:39:01.991Z,78.62
2019-02-12T03:41:32.742Z,78.55
2019-02-12T03:44:03.462Z,78.79
2019-02-12T03:46:34.177Z,78.48
2019-02-12T03:49:05.012Z,78.79
2019-02-12T03:51:35.726Z,78.95
2019-02-12T03:54:06.450Z,78.91
2019-02-12T03:56:37.179Z,79.02
2019-02-12T03:59:07.783Z,79.03
2019-02-12T04:01:38.287Z,79.27
2019-02-12T04:04:08.928Z,79.44
2019-02-12T04:06:39.480Z,79.54
2019-02-12T04:09:09.971Z,79.90
2019-02-12T04:11:40.539Z,79.69
2019-02-12T04:14:11.073Z,79.93
2019-02-12T04:16:41.563Z,80.29
2019-02-12T04:19:12.130Z,80.89
2019-02-12T04:21:42.693Z,80.65
2019-02-12T04:24:13.309Z,80.83
2019-02-12T04:26:43.937Z,81.13
2019-02-12T04:29:14.518Z,81.37
2019-02-12T04:31:45.007Z,81.72
2019-02-12T04:34:15.538Z,81.63
2019-02-12T04:36:46.019Z,82.07
2019-02-12T04:39:16.534Z,82.17
2019-02-12T04:41:47.043Z,82.45
2019-02-12T04:44:17.603Z,82.42
2019-02-12T04:46:48.117Z,82.52
2019-02-12T04:49:18.652Z,82.85
2019-02-12T04:51:49.196Z,82.96
2019-02-12T04:54:19.650Z,82.80
2019-02-12T04:56:51.189Z,82.87
2019-02-12T04:59:21.659Z,82.75
2019-02-12T05:01:52.275Z,82.57
2019-02-12T05:04:22.954Z,82.47
2019-02-12T05:06:55.038Z,81.88
2019-02-12T05:09:25.625Z,81.75
2019-02-12T05:11:59.970Z,82.02
2019-02-12T05:14:30.559Z,81.80
2019-02-12T05:17:01.306Z,82.03
2019-02-12T05:19:31.979Z,81.80
2019-02-12T05:22:02.549Z,81.95
2019-02-12T05:24:33.154Z,81.79
2019-02-12T05:27:03.771Z,82.06
2019-02-12T05:29:34.460Z,82.03
2019-02-12T05:32:05.044Z,81.67
2019-02-12T05:34:38.629Z,81.53
2019-02-12T05:37:09.219Z,81.40
2019-02-12T05:39:39.850Z,81.30
2019-02-12T05:42:10.435Z,81.11
2019-02-12T05:44:41.085Z,81.15
2019-02-12T05:47:11.749Z,81.39
2019-02-12T05:49:42.447Z,81.54
2019-02-12T05:52:12.969Z,81.54
2019-02-12T05:54:43.557Z,81.64
2019-02-12T05:57:14.104Z,82.04
2019-02-12T05:59:47.026Z,81.87
2019-02-12T06:02:16.862Z,81.86
2019-02-12T06:04:47.494Z,81.50
2019-02-12T06:07:18.001Z,81.56
2019-02-12T06:09:48.547Z,81.39
2019-02-12T06:12:19.173Z,81.62
2019-02-12T06:14:50.634Z,81.66
2019-02-12T06:17:21.157Z,81.42
2019-02-12T06:19:51.845Z,81.51
2019-02-12T06:22:22.512Z,81.62
2019-02-12T06:24:53.070Z,81.70
2019-02-12T06:27:23.745Z,81.62
2019-02-12T06:29:54.288Z,81.87
2019-02-12T06:32:24.783Z,81.80
2019-02-12T06:34:55.456Z,81.62
2019-02-12T06:37:27.402Z,81.51
2019-02-12T06:39:58.201Z,81.51
2019-02-12T06:42:29.040Z,81.09
2019-02-12T06:44:59.614Z,80.94
2019-02-12T06:47:32.193Z,80.69
2019-02-12T06:50:02.795Z,80.81
2019-02-12T06:52:34.231Z,80.78
2019-02-12T06:55:07.736Z,80.66
2019-02-12T06:57:39.830Z,81.03
2019-02-12T07:00:10.801Z,81.30
2019-02-12T07:03:19.971Z,81.89
2019-02-12T07:06:35.707Z,81.93
2019-02-12T07:09:36.219Z,82.55
2019-02-12T07:13:08.832Z,82.59
2019-02-12T07:15:51.953Z,82.91
2019-02-12T07:19:29.297Z,82.78
2019-02-12T07:22:53.291Z,82.75
2019-02-12T07:25:56.755Z,82.57
2019-02-12T07:29:12.148Z,82.79
2019-02-12T07:32:37.176Z,83.10
2019-02-12T07:36:00.846Z,82.71
2019-02-12T07:38:57.457Z,82.65
2019-02-12T07:42:34.882Z,82.56
2019-02-12T07:45:47.264Z,82.17
2019-02-12T07:49:22.900Z,82.06
2019-02-12T07:52:48.051Z,82.01
2019-02-12T07:56:22.365Z,82.24
2019-02-12T07:59:52.421Z,82.41
2019-02-12T08:03:01.977Z,82.42
2019-02-12T08:06:16.891Z,82.73
2019-02-12T08:09:46.826Z,83.00
2019-02-12T08:12:46.849Z,82.75
2019-02-12T08:15:54.276Z,82.41
2019-02-12T08:19:12.380Z,81.83
2019-02-12T08:22:14.246Z,81.17
2019-02-12T08:25:45.774Z,80.56
2019-02-12T08:29:10.640Z,79.97
2019-02-12T08:32:25.112Z,79.50
2019-02-12T08:35:57.317Z,78.33
2019-02-12T08:39:23.915Z,78.22
2019-02-12T08:42:36.673Z,77.98
2019-02-12T08:46:11.511Z,77.89
2019-02-12T08:49:19.379Z,76.30
2019-02-12T08:52:41.666Z,75.72
2019-02-12T08:56:24.555Z,75.02
2019-02-12T09:00:10.503Z,73.65
2019-02-12T09:03:20.797Z,73.40
2019-02-12T09:06:21.153Z,72.47
2019-02-12T09:10:08.814Z,73.28
2019-02-12T09:13:38.474Z,72.38
2019-02-12T09:16:59.536Z,71.12
2019-02-12T09:20:19.417Z,69.81
2019-02-12T09:24:07.038Z,68.67
2019-02-12T09:27:26.659Z,69.63
2019-02-12T09:30:49.583Z,69.02
2019-02-12T09:34:28.225Z,69.63
2019-02-12T09:37:52.167Z,69.77
2019-02-12T09:41:17.219Z,69.77
2019-02-12T09:44:43.032Z,69.92
2019-02-12T09:48:13.787Z,69.70
2019-02-12T09:51:48.377Z,67.96
2019-02-12T09:55:31.807Z,69.14
2019-02-12T09:59:17.345Z,70.58
2019-02-12T10:02:45.915Z,72.95
2019-02-12T10:06:21.303Z,75.60
2019-02-12T10:09:50.312Z,76.09
2019-02-12T10:12:52.131Z,77.18
2019-02-12T10:16:12.461Z,77.04
2019-02-12T10:19:41.951Z,76.72
2019-02-12T10:23:36.477Z,76.15
2019-02-12T10:26:11.522Z,76.88
2019-02-12T10:29:17.681Z,77.16
2019-02-12T10:31:46.442Z,76.63
2019-02-12T10:34:17.390Z,75.96
2019-02-12T10:36:48.026Z,76.65
2019-02-12T10:39:18.672Z,76.20
2019-02-12T10:41:49.122Z,75.74
2019-02-12T10:44:19.902Z,74.90
2019-02-12T10:46:50.482Z,74.94
2019-02-12T10:49:20.882Z,74.51
2019-02-12T10:51:51.315Z,74.92
2019-02-12T10:54:27.900Z,74.08
2019-02-12T10:56:54.080Z,73.43
2019-02-12T10:59:24.553Z,73.61
2019-02-12T11:01:55.189Z,72.74
2019-02-12T11:04:25.673Z,72.17
2019-02-12T11:06:56.159Z,72.18
2019-02-12T11:09:26.710Z,71.78
2019-02-12T11:11:57.178Z,71.28
2019-02-12T11:14:27.560Z,71.04
2019-02-12T11:16:58.181Z,69.83
2019-02-12T11:19:28.671Z,69.76
2019-02-12T11:21:58.978Z,70.61
2019-02-12T11:24:35.496Z,70.18
2019-02-12T11:27:01.793Z,68.49
2019-02-12T11:29:32.322Z,68.65
2019-02-12T11:32:02.899Z,68.38
2019-02-12T11:34:33.367Z,68.02
2019-02-12T11:37:03.860Z,68.49
2019-02-12T11:39:34.476Z,66.17
2019-02-12T11:42:04.954Z,66.38
2019-02-12T11:44:35.414Z,66.94
2019-02-12T11:47:07.608Z,67.09
2019-02-12T11:49:37.939Z,65.58
2019-02-12T11:52:08.444Z,65.36
2019-02-12T11:54:43.800Z,65.10
2019-02-12T11:57:11.192Z,65.39
2019-02-12T11:59:41.579Z,65.34
2019-02-12T12:02:12.104Z,64.49
2019-02-12T12:04:42.563Z,64.56
2019-02-12T12:07:13.030Z,63.47
2019-02-12T12:09:43.562Z,63.77
2019-02-12T12:12:14.126Z,63.51
2019-02-12T12:14:44.581Z,63.66
2019-02-12T12:17:15.161Z,64.06
2019-02-12T12:19:45.741Z,64.36
2019-02-12T12:22:16.208Z,64.53
2019-02-12T12:24:51.432Z,65.11
2019-02-12T12:27:19.030Z,65.42
2019-02-12T12:29:49.413Z,65.08
2019-02-12T12:32:20.021Z,64.96
2019-02-12T12:34:50.562Z,65.60
2019-02-12T12:37:21.015Z,65.63
2019-02-12T12:39:51.523Z,65.94
2019-02-12T12:42:22.029Z,66.12
2019-02-12T12:44:52.481Z,66.50
2019-02-12T12:47:23.025Z,67.02
2019-02-12T12:49:53.493Z,66.89
2019-02-12T12:52:24.059Z,67.01
2019-02-12T12:54:59.718Z,67.13
2019-02-12T12:57:26.648Z,66.32
2019-02-12T12:59:57.114Z,66.40
2019-02-12T13:02:27.668Z,66.04
2019-02-12T13:04:58.132Z,64.89
2019-02-12T13:07:28.602Z,63.85
2019-02-12T13:09:59.120Z,64.26
2019-02-12T13:12:30.320Z,63.93
2019-02-12T13:15:00.856Z,63.71
2019-02-12T13:17:31.414Z,62.05
2019-02-12T13:20:01.907Z,61.74
2019-02-12T13:22:33.252Z,60.42
2019-02-12T13:25:08.703Z,60.00
2019-02-12T13:27:35.948Z,61.03
2019-02-12T13:30:08.496Z,60.87
2019-02-12T13:32:38.967Z,61.18
2019-02-12T13:35:10.398Z,61.08
2019-02-12T13:37:40.912Z,60.25
2019-02-12T13:40:12.532Z,60.43
2019-02-12T13:42:43.090Z,58.69
2019-02-12T13:45:15.086Z,58.86
2019-02-12T13:47:45.588Z,57.33
2019-02-12T13:50:16.073Z,56.34
2019-02-12T13:52:46.572Z,57.16
2019-02-12T13:55:17.816Z,57.45
2019-02-12T13:57:48.608Z,57.45
2019-02-12T14:00:19.161Z,57.69
2019-02-12T14:02:49.747Z,57.73
2019-02-12T14:05:20.305Z,58.46
2019-02-12T14:07:50.874Z,58.53
2019-02-12T14:10:21.457Z,59.08
2019-02-12T14:12:51.919Z,59.06
2019-02-12T14:15:22.459Z,59.32
2019-02-12T14:17:52.928Z,60.26
2019-02-12T14:20:23.488Z,60.49
2019-02-12T14:22:53.928Z,60.69
2019-02-12T14:25:25.894Z,60.67
2019-02-12T14:27:56.561Z,60.78
2019-02-12T14:30:27.080Z,61.39
2019-02-12T14:32:57.599Z,62.02
2019-02-12T14:35:28.098Z,61.49
2019-02-12T14:37:58.669Z,60.78
2019-02-12T14:40:29.066Z,61.15
2019-02-12T14:42:59.530Z,61.53
2019-02-12T14:45:30.047Z,62.13
2019-02-12T14:48:00.535Z,62.37
2019-02-12T14:50:30.951Z,63.54
2019-02-12T14:53:01.448Z,64.23
2019-02-12T14:55:33.877Z,65.39
2019-02-12T14:58:04.196Z,66.08
2019-02-12T15:00:34.762Z,65.73
2019-02-12T15:03:05.216Z,65.81
2019-02-12T15:05:35.714Z,65.69
2019-02-12T15:08:06.225Z,65.80
2019-02-12T15:10:36.702Z,65.40
2019-02-12T15:13:07.226Z,65.92
2019-02-12T15:15:37.686Z,65.27
2019-02-12T15:18:08.102Z,65.64
2019-02-12T15:20:38.549Z,65.92
2019-02-12T15:23:09.253Z,67.17
2019-02-12T15:25:41.939Z,67.27
2019-02-12T15:28:11.814Z,67.67
2019-02-12T15:30:42.313Z,68.04
2019-02-12T15:33:12.794Z,68.67
2019-02-12T15:35:43.217Z,69.10
2019-02-12T15:38:13.863Z,69.60
2019-02-12T15:40:44.344Z,69.87
2019-02-12T15:43:14.919Z,70.32
2019-02-12T15:45:45.312Z,70.79
2019-02-12T15:48:15.886Z,71.30
2019-02-12T15:50:46.335Z,71.81
2019-02-12T15:53:16.827Z,72.17
2019-02-12T15:55:51.311Z,72.61
2019-02-12T15:58:19.865Z,72.66
2019-02-12T16:00:50.454Z,73.20
2019-02-12T16:03:21.059Z,73.36
2019-02-12T16:05:51.588Z,73.93
2019-02-12T16:08:22.261Z,73.93
2019-02-12T16:10:52.801Z,73.63
2019-02-12T16:13:23.388Z,74.01
2019-02-12T16:15:53.929Z,74.45
2019-02-12T16:18:24.936Z,74.82
2019-02-12T16:20:55.469Z,74.99
2019-02-12T16:23:25.992Z,74.81
2019-02-12T16:25:59.573Z,74.75
2019-02-12T16:28:28.758Z,74.76
2019-02-12T16:30:59.322Z,74.66
2019-02-12T16:33:30.710Z,75.33
2019-02-12T16:36:04.825Z,75.61
2019-02-12T16:38:35.404Z,75.24
2019-02-12T16:41:06.204Z,75.29
2019-02-12T16:43:36.747Z,75.42
2019-02-12T16:46:18.328Z,75.51
2019-02-12T16:48:48.875Z,75.72
2019-02-12T16:51:19.371Z,75.47
2019-02-12T16:53:49.929Z,75.64
2019-02-12T16:56:20.512Z,75.44
2019-02-12T16:58:53.082Z,75.71
2019-02-12T17:01:23.666Z,75.46
2019-02-12T17:03:57.303Z,75.13
2019-02-12T17:06:28.024Z,75.25
2019-02-12T17:09:01.607Z,75.54
2019-02-12T17:11:32.528Z,75.45
2019-02-12T17:14:03.153Z,75.47
2019-02-12T17:16:34.116Z,75.68
2019-02-12T17:19:06.339Z,76.00
2019-02-12T17:21:37.465Z,76.20
2019-02-12T17:24:08.934Z,76.03
2019-02-12T17:26:39.717Z,76.06
2019-02-12T17:29:10.325Z,75.87
2019-02-12T17:31:41.008Z,75.65
2019-02-12T17:34:11.752Z,75.70
2019-02-12T17:36:42.431Z,75.85
2019-02-12T17:39:13.028Z,76.17
2019-02-12T17:41:43.589Z,76.44
2019-02-12T17:44:14.460Z,76.50
2019-02-12T17:46:45.060Z,76.51
2019-02-12T17:49:15.610Z,77.10
2019-02-12T17:51:46.409Z,77.25
2019-02-12T17:54:17.851Z,78.08
2019-02-12T17:56:48.555Z,77.78
2019-02-12T17:59:19.170Z,78.07
2019-02-12T18:01:49.743Z,77.92
2019-02-12T18:04:20.347Z,77.78
2019-02-12T18:06:50.921Z,77.41
2019-02-12T18:09:21.456Z,77.84
2019-02-12T18:11:52.146Z,78.00
2019-02-12T18:14:22.835Z,77.96
2019-02-12T18:16:53.389Z,77.83
2019-02-12T18:19:23.975Z,77.95
2019-02-12T18:21:54.638Z,78.05
2019-02-12T18:24:47.453Z,77.99
2019-02-12T18:30:13.023Z,78.41
2019-02-12T18:32:44.109Z,79.05
2019-02-12T18:35:14.642Z,79.07
2019-02-12T18:37:45.243Z,79.40
2019-02-12T18:40:15.866Z,79.27
2019-02-12T18:42:46.538Z,79.44
2019-02-12T18:45:17.786Z,79.10
2019-02-12T18:47:48.485Z,79.02
2019-02-12T18:50:18.990Z,79.81
2019-02-12T18:52:49.654Z,79.80
2019-02-12T18:55:20.570Z,79.76
2019-02-12T18:57:51.160Z,80.17
2019-02-12T19:00:21.905Z,80.36
2019-02-12T19:02:52.521Z,79.81
2019-02-12T19:05:23.228Z,80.09
2019-02-12T19:07:57.648Z,80.61
2019-02-12T19:10:28.635Z,80.84
2019-02-12T19:13:00.039Z,81.06
2019-02-12T19:15:30.663Z,81.19
2019-02-12T19:18:12.057Z,81.48
2019-02-12T19:20:42.754Z,81.82
2019-02-12T19:23:13.968Z,81.93
2019-02-12T19:25:44.622Z,82.09
2019-02-12T19:28:15.248Z,82.23
2019-02-12T19:30:45.903Z,81.83
2019-02-12T19:33:16.589Z,82.21
2019-02-12T19:35:47.236Z,82.42
2019-02-12T19:38:18.031Z,82.53
2019-02-12T19:40:48.582Z,82.69
2019-02-12T19:43:19.240Z,83.08
2019-02-12T19:45:49.875Z,83.20
2019-02-12T19:48:20.614Z,83.42
2019-02-12T19:50:51.321Z,83.30
2019-02-12T19:53:22.001Z,83.59
2019-02-12T19:55:52.640Z,83.79
2019-02-12T19:58:23.304Z,83.87
2019-02-12T20:00:54.015Z,83.88
2019-02-12T20:03:24.642Z,84.27
2019-02-12T20:05:55.268Z,83.97
2019-02-12T20:08:25.854Z,83.69
2019-02-12T20:10:56.849Z,83.89
2019-02-12T20:13:27.414Z,83.81
2019-02-12T20:15:58.155Z,84.40
2019-02-12T20:18:29.512Z,84.11
2019-02-12T20:21:00.853Z,84.56
2019-02-12T20:23:32.128Z,84.45
2019-02-12T20:26:02.715Z,84.51
2019-02-12T20:28:33.322Z,84.53
2019-02-12T20:31:03.941Z,84.48
2019-02-12T20:33:34.506Z,84.67
2019-02-12T20:36:05.510Z,84.98
2019-02-12T20:38:38.898Z,85.12
2019-02-12T20:41:10.420Z,84.96
2019-02-12T20:43:40.976Z,84.81
2019-02-12T20:46:12.761Z,84.99
2019-02-12T20:48:43.352Z,84.98
2019-02-12T20:51:13.890Z,84.57
2019-02-12T20:53:44.462Z,84.60
2019-02-12T20:56:15.161Z,84.88
2019-02-12T20:58:47.031Z,84.59
2019-02-12T21:01:17.664Z,84.46
2019-02-12T21:03:48.276Z,84.76
2019-02-12T21:06:18.803Z,84.67
2019-02-12T21:08:49.412Z,84.75
2019-02-12T21:11:19.943Z,84.87
2019-02-12T21:13:50.409Z,84.90
2019-02-12T21:16:21.761Z,85.06
2019-02-12T21:18:52.466Z,84.77
2019-02-12T21:21:23.097Z,85.14
2019-02-12T21:23:53.631Z,85.02
2019-02-12T21:26:24.267Z,85.07
2019-02-12T21:28:54.818Z,84.60
2019-02-12T21:31:25.516Z,84.43
2019-02-12T21:33:56.167Z,84.50
2019-02-12T21:36:26.743Z,84.67
2019-02-12T21:38:57.403Z,84.71
2019-02-12T21:41:27.965Z,83.93
2019-02-12T21:43:58.476Z,83.79
2019-02-12T21:46:29.998Z,83.77
2019-02-12T21:49:00.757Z,83.96
2019-02-12T21:51:31.264Z,83.98
2019-02-12T21:54:01.886Z,83.94
2019-02-12T21:56:32.706Z,84.33
2019-02-12T21:59:03.181Z,84.46
2019-02-12T22:01:33.666Z,84.48
2019-02-12T22:04:04.175Z,84.42
2019-02-12T22:06:34.653Z,84.71
2019-02-12T22:09:06.646Z,84.76
2019-02-12T22:11:37.204Z,84.51
2019-02-12T22:14:07.695Z,84.77
2019-02-12T22:16:38.203Z,84.41
2019-02-12T22:19:08.674Z,84.37
2019-02-12T22:21:39.210Z,84.06
2019-02-12T22:24:09.682Z,84.11
2019-02-12T22:26:40.187Z,83.96
2019-02-12T22:29:10.741Z,84.14
2019-02-12T22:31:41.172Z,84.27
2019-02-12T22:34:11.708Z,84.24
2019-02-12T22:36:42.191Z,84.37
2019-02-12T22:39:12.653Z,83.87
2019-02-12T22:41:43.160Z,84.23
2019-02-12T22:44:13.643Z,84.15
2019-02-12T22:46:44.115Z,84.15
2019-02-12T22:49:14.610Z,83.88
2019-02-12T22:51:45.155Z,84.09
2019-02-12T22:54:15.660Z,83.76
2019-02-12T22:56:46.208Z,83.89
2019-02-12T22:59:16.664Z,83.86
2019-02-12T23:01:47.131Z,83.82
2019-02-12T23:04:18.738Z,83.74
2019-02-12T23:06:49.201Z,83.48
2019-02-12T23:09:19.763Z,83.70
2019-02-12T23:11:50.283Z,83.70
2019-02-12T23:14:23.832Z,83.78
2019-02-12T23:16:54.254Z,83.77
2019-02-12T23:19:24.746Z,83.82
2019-02-12T23:21:55.221Z,83.93
2019-02-12T23:24:25.690Z,83.95
2019-02-12T23:26:56.339Z,83.95
2019-02-12T23:29:26.820Z,83.83
2019-02-12T23:31:57.280Z,83.76
2019-02-12T23:34:27.859Z,84.28
2019-02-12T23:36:58.392Z,84.18
2019-02-12T23:39:28.850Z,84.30
2019-02-12T23:41:59.372Z,84.04
2019-02-12T23:44:29.825Z,84.21
2019-02-12T23:47:00.330Z,84.00
2019-02-12T23:49:30.818Z,83.95
2019-02-12T23:52:01.220Z,83.82
2019-02-12T23:54:31.692Z,83.90
2019-02-12T23:57:02.226Z,84.20
2019-02-12T23:59:32.956Z,84.10
